Time;durP1;ratioP1;P1;durP2;ratioP2;P2;SDS_P1;SDS_P2;PMS_P1;PMS_P2;Temp;Humidity;BMP_temperature;BMP_pressure;BME280_temperature;BME280_humidity;BME280_pressure;Samples;Min_cycle;Max_cycle;Signal;HPM_P1;HPM_P2
2021/08/15 00:02:24;;;;;;;11.27;6.30;;;;;;;21.30;62.90;100601.38;4935025;29;20082;-90
2021/08/15 00:04:50;;;;;;;12.57;5.80;;;;;;;21.24;63.07;100602.06;4935482;29;20541;-91
2021/08/15 00:07:15;;;;;;;10.00;6.40;;;;;;;21.14;63.46;100607.56;4950244;29;20410;-91
2021/08/15 00:09:41;;;;;;;11.93;6.25;;;;;;;21.13;63.40;100600.56;4935392;29;20024;-91
2021/08/15 00:12:07;;;;;;;8.52;5.40;;;;;;;21.13;63.21;100612.09;4935303;29;20016;-91
2021/08/15 00:14:33;;;;;;;8.07;5.80;;;;;;;21.05;63.12;100603.22;4934108;29;20046;-91
2021/08/15 00:16:59;;;;;;;14.40;6.80;;;;;;;20.83;63.61;100581.53;4935256;29;20486;-91
2021/08/15 00:19:24;;;;;;;9.32;6.15;;;;;;;20.90;63.54;100590.56;4935009;29;20450;-91
2021/08/15 00:21:50;;;;;;;10.60;6.90;;;;;;;20.90;63.59;100587.91;4949926;29;20027;-91
2021/08/15 00:24:15;;;;;;;13.65;8.43;;;;;;;20.75;64.58;100593.09;4934914;29;20020;-91
2021/08/15 00:26:40;;;;;;;10.75;7.28;;;;;;;20.89;64.09;100585.38;4934953;29;20114;-91
2021/08/15 00:29:06;;;;;;;12.30;7.63;;;;;;;20.88;64.06;100579.22;4934914;29;20486;-91
2021/08/15 00:31:31;;;;;;;11.73;6.97;;;;;;;20.89;63.74;100575.56;4949493;29;20024;-91
2021/08/15 00:33:57;;;;;;;12.95;8.65;;;;;;;20.87;63.96;100569.53;4934593;29;20039;-91
2021/08/15 00:36:22;;;;;;;12.20;7.57;;;;;;;20.90;63.90;100571.88;4934648;29;20470;-91
2021/08/15 00:38:48;;;;;;;11.95;7.88;;;;;;;20.94;63.57;100565.22;4934526;29;20103;-91
2021/08/15 00:41:14;;;;;;;12.93;8.00;;;;;;;20.82;63.99;100571.06;4934767;29;20098;-91
2021/08/15 00:43:39;;;;;;;15.90;8.15;;;;;;;20.75;64.23;100561.06;4933336;29;20023;-91
2021/08/15 00:46:09;;;;;;;15.68;7.32;;;;;;;20.85;64.09;100568.03;4933583;29;20027;-90
2021/08/15 00:48:34;;;;;;;15.65;8.32;;;;;;;20.69;64.20;100556.38;4934750;29;20035;-91
2021/08/15 00:51:01;;;;;;;15.60;7.78;;;;;;;20.71;64.06;100557.03;4934662;29;20023;-91
2021/08/15 00:53:27;;;;;;;10.93;7.75;;;;;;;20.67;64.32;100563.69;4934465;29;20390;-91
2021/08/15 00:55:53;;;;;;;17.67;8.88;;;;;;;20.62;64.04;100563.38;4949108;28;20378;-90
2021/08/15 00:58:18;;;;;;;11.77;7.28;;;;;;;20.64;64.00;100565.91;4934482;29;20032;-90
2021/08/15 01:00:43;;;;;;;11.85;7.35;;;;;;;20.53;63.83;100559.81;4934775;29;20031;-91
2021/08/15 01:03:09;;;;;;;9.75;6.93;;;;;;;20.47;63.99;100551.66;4934458;29;20032;-91
2021/08/15 01:05:34;;;;;;;16.75;8.07;;;;;;;20.46;64.20;100557.97;4934561;29;20027;-91
2021/08/15 01:08:01;;;;;;;12.95;8.32;;;;;;;20.34;64.49;100545.00;4934471;29;20114;-91
2021/08/15 01:10:26;;;;;;;17.27;8.27;;;;;;;20.34;64.02;100547.66;4934443;29;20040;-91
2021/08/15 01:12:52;;;;;;;11.57;7.10;;;;;;;20.29;64.31;100549.97;4934393;29;20031;-91
2021/08/15 01:15:18;;;;;;;14.57;7.47;;;;;;;20.26;64.27;100549.47;4936112;29;20390;-91
2021/08/15 01:17:43;;;;;;;11.57;7.50;;;;;;;20.19;64.08;100546.63;4938338;29;20039;-91
2021/08/15 01:20:10;;;;;;;12.20;7.45;;;;;;;20.16;64.16;100545.13;4938152;29;20542;-92
2021/08/15 01:22:38;;;;;;;10.35;7.45;;;;;;;19.95;64.57;100542.91;4938302;29;20074;-90
2021/08/15 01:25:08;;;;;;;12.07;7.57;;;;;;;19.79;65.64;100551.66;4938023;29;20301;-92
2021/08/15 01:27:39;;;;;;;15.32;8.27;;;;;;;19.97;65.06;100540.06;4938143;29;20099;-90
2021/08/15 01:30:10;;;;;;;14.18;7.68;;;;;;;19.98;65.07;100539.06;4938101;29;20087;-91
2021/08/15 01:32:36;;;;;;;10.60;6.90;;;;;;;19.84;64.97;100529.03;4938019;29;20122;-91
2021/08/15 01:35:03;;;;;;;11.50;7.40;;;;;;;19.76;65.51;100512.03;4936644;29;20031;-91
2021/08/15 01:37:28;;;;;;;13.68;7.32;;;;;;;19.85;65.26;100525.38;4937826;29;20585;-91
2021/08/15 01:39:54;;;;;;;12.90;7.63;;;;;;;19.78;65.46;100520.69;4937687;29;20127;-91
2021/08/15 01:42:20;;;;;;;15.30;7.30;;;;;;;19.86;65.49;100527.03;4937821;29;20027;-90
2021/08/15 01:44:45;;;;;;;12.73;7.00;;;;;;;19.85;65.44;100515.56;4937672;29;20432;-92
2021/08/15 01:47:10;;;;;;;10.55;7.30;;;;;;;19.82;65.79;100518.53;4952384;29;20046;-91
2021/08/15 01:49:36;;;;;;;8.93;7.10;;;;;;;19.85;65.50;100520.88;4937785;29;20028;-90
2021/08/15 01:52:01;;;;;;;12.55;7.50;;;;;;;19.88;65.89;100509.06;4937692;29;20487;-90
2021/08/15 01:54:27;;;;;;;12.32;7.88;;;;;;;19.87;66.16;100505.56;4937651;29;20090;-91
2021/08/15 01:56:52;;;;;;;11.30;7.05;;;;;;;19.98;66.14;100517.75;4937530;29;20494;-91
2021/08/15 01:59:17;;;;;;;10.20;6.97;;;;;;;19.99;66.10;100506.09;4937465;29;20407;-90
2021/08/15 02:01:43;;;;;;;12.75;8.40;;;;;;;20.04;66.17;100508.28;4936103;29;20032;-91
2021/08/15 02:04:08;;;;;;;11.40;7.25;;;;;;;20.10;66.03;100505.81;4937236;29;20028;-91
2021/08/15 02:06:34;;;;;;;12.07;7.93;;;;;;;20.04;66.11;100500.28;4937331;29;20024;-90
2021/08/15 02:08:59;;;;;;;17.75;9.27;;;;;;;20.02;66.60;100500.44;4936051;29;20028;-91
2021/08/15 02:11:25;;;;;;;14.55;8.25;;;;;;;20.14;66.60;100504.47;4937493;29;20386;-91
2021/08/15 02:13:50;;;;;;;14.75;8.55;;;;;;;20.15;66.47;100499.97;4937262;29;20038;-90
2021/08/15 02:16:16;;;;;;;15.18;8.63;;;;;;;20.16;66.54;100486.47;4937174;29;20107;-90
2021/08/15 02:18:41;;;;;;;14.48;7.35;;;;;;;20.19;66.37;100488.81;4937256;29;20383;-91
2021/08/15 02:21:07;;;;;;;11.38;7.68;;;;;;;20.30;66.37;100497.47;4936961;29;20028;-91
2021/08/15 02:23:32;;;;;;;9.00;7.25;;;;;;;20.32;66.60;100483.00;4937211;29;20036;-91
2021/08/15 02:25:58;;;;;;;17.35;8.65;;;;;;;20.46;65.87;100477.97;4935345;29;20031;-91
2021/08/15 02:28:24;;;;;;;12.70;8.15;;;;;;;20.46;66.07;100483.31;4936951;29;20438;-91
2021/08/15 02:30:49;;;;;;;14.23;8.27;;;;;;;20.54;66.13;100472.66;4951726;28;20031;-91
2021/08/15 02:33:15;;;;;;;11.63;8.60;;;;;;;20.47;66.17;100461.81;4936798;29;20031;-91
2021/08/15 02:35:40;;;;;;;9.75;8.02;;;;;;;20.55;65.98;100468.97;4936851;29;20367;-91
2021/08/15 02:38:05;;;;;;;12.50;8.80;;;;;;;20.54;66.16;100470.00;4936706;29;20020;-91
2021/08/15 02:40:31;;;;;;;12.38;7.68;;;;;;;20.63;66.05;100471.66;4936779;29;20103;-91
2021/08/15 02:42:56;;;;;;;10.52;8.10;;;;;;;20.68;65.76;100469.34;4936636;29;20110;-90
2021/08/15 02:45:24;;;;;;;15.25;8.32;;;;;;;20.79;65.74;100457.47;4936522;29;20039;-91
2021/08/15 02:47:50;;;;;;;9.20;6.20;;;;;;;20.81;65.53;100455.47;4936626;29;20035;-90
2021/08/15 02:50:17;;;;;;;12.80;8.10;;;;;;;20.85;65.22;100454.13;4935286;29;20032;-91
2021/08/15 02:52:43;;;;;;;8.80;6.95;;;;;;;20.81;65.54;100450.13;4936443;29;20079;-90
2021/08/15 02:55:10;;;;;;;10.60;7.80;;;;;;;20.83;65.64;100440.09;4936317;29;20036;-91
2021/08/15 02:57:35;;;;;;;11.13;7.35;;;;;;;20.92;65.13;100435.59;4936376;29;20060;-91
2021/08/15 03:00:02;;;;;;;9.73;6.85;;;;;;;20.98;64.95;100438.41;4936271;29;20171;-91
2021/08/15 03:02:28;;;;;;;13.35;7.75;;;;;;;20.87;65.33;100429.94;4936324;29;20034;-91
2021/08/15 03:04:53;;;;;;;8.63;6.78;;;;;;;20.84;65.50;100432.97;4936162;29;20032;-91
2021/08/15 03:07:19;;;;;;;12.25;7.97;;;;;;;20.91;65.31;100436.59;4936561;29;20020;-91
2021/08/15 03:09:46;;;;;;;14.68;7.88;;;;;;;20.96;65.18;100432.41;4936492;29;20394;-91
2021/08/15 03:12:12;;;;;;;13.63;8.60;;;;;;;20.94;65.44;100430.94;4936019;29;20023;-91
2021/08/15 03:14:40;;;;;;;15.13;7.22;;;;;;;20.94;65.41;100426.41;4936163;29;20032;-91
2021/08/15 03:17:07;;;;;;;11.43;8.00;;;;;;;21.03;65.28;100435.25;4935909;29;20102;-90
2021/08/15 03:19:33;;;;;;;9.52;6.53;;;;;;;21.02;65.33;100428.22;4935790;29;20090;-91
2021/08/15 03:21:58;;;;;;;12.63;7.53;;;;;;;21.04;65.66;100428.06;4935971;29;20032;-91
2021/08/15 03:24:24;;;;;;;14.40;7.93;;;;;;;21.09;65.40;100428.38;4935847;29;20020;-91
2021/08/15 03:26:49;;;;;;;12.27;8.45;;;;;;;21.09;65.36;100409.69;4935925;29;20028;-91
2021/08/15 03:29:16;;;;;;;13.35;7.47;;;;;;;21.15;65.65;100401.81;4936078;29;20035;-91
2021/08/15 03:31:44;;;;;;;10.95;6.80;;;;;;;21.23;65.46;100398.28;4935764;29;20059;-91
2021/08/15 03:34:11;;;;;;;12.90;7.85;;;;;;;21.27;65.54;100412.94;4935593;29;20055;-91
2021/08/15 03:36:36;;;;;;;10.88;6.22;;;;;;;21.27;65.60;100404.94;4934208;29;20391;-91
2021/08/15 03:39:03;;;;;;;14.63;8.52;;;;;;;21.22;65.89;100395.78;4933944;29;20027;-91
2021/08/15 03:41:28;;;;;;;9.10;6.93;;;;;;;21.13;66.26;100405.66;4935545;29;20024;-91
2021/08/15 03:43:53;;;;;;;8.02;6.10;;;;;;;21.15;66.51;100406.34;4935428;29;20434;-91
2021/08/15 03:46:19;;;;;;;10.55;6.93;;;;;;;21.26;66.13;100400.59;4935350;29;20030;-91
2021/08/15 03:48:44;;;;;;;8.32;6.20;;;;;;;21.29;66.01;100397.59;4935438;29;20035;-91
2021/08/15 03:51:10;;;;;;;13.98;7.50;;;;;;;21.34;65.80;100395.22;4935554;29;20062;-91
2021/08/15 03:53:35;;;;;;;14.65;8.40;;;;;;;21.25;66.59;100390.94;4935208;29;20020;-90
2021/08/15 03:56:01;;;;;;;10.35;6.68;;;;;;;21.30;66.55;100393.91;4935220;29;20032;-91
2021/08/15 03:58:28;;;;;;;9.43;7.38;;;;;;;21.28;67.00;100395.91;4935213;29;20031;-91
2021/08/15 04:00:54;;;;;;;10.45;7.13;;;;;;;21.34;67.46;100394.38;4935322;29;20390;-90
2021/08/15 04:03:19;;;;;;;8.98;6.90;;;;;;;21.34;67.15;100383.69;4935273;29;20024;-91
2021/08/15 04:05:44;;;;;;;11.02;7.70;;;;;;;21.34;66.88;100384.53;4935114;29;20075;-90
2021/08/15 04:08:10;;;;;;;7.80;5.63;;;;;;;21.42;66.91;100388.16;4935273;29;20032;-90
2021/08/15 04:10:36;;;;;;;9.05;6.15;;;;;;;21.43;67.06;100376.50;4935369;29;20031;-91
2021/08/15 04:13:03;;;;;;;8.77;6.82;;;;;;;21.50;66.91;100385.47;4935089;29;20031;-91
2021/08/15 04:15:28;;;;;;;7.55;6.05;;;;;;;21.49;66.86;100375.81;4949752;28;20078;-90
2021/08/15 04:17:53;;;;;;;10.60;7.32;;;;;;;21.44;67.13;100383.50;4934936;29;20425;-91
2021/08/15 04:20:19;;;;;;;10.50;7.85;;;;;;;21.45;67.57;100380.69;4935090;29;20031;-91
2021/08/15 04:22:45;;;;;;;11.10;7.88;;;;;;;21.49;67.35;100381.16;4934863;29;20038;-91
2021/08/15 04:25:11;;;;;;;9.57;7.63;;;;;;;21.53;67.05;100374.47;4934756;29;20253;-91
2021/08/15 04:27:36;;;;;;;15.48;8.25;;;;;;;21.38;67.94;100367.13;4935017;29;20031;-91
2021/08/15 04:30:03;;;;;;;16.70;9.00;;;;;;;21.38;67.91;100367.13;4933537;29;20024;-91
2021/08/15 04:32:29;;;;;;;10.75;8.18;;;;;;;21.42;67.91;100369.47;4933429;29;20162;-91
2021/08/15 04:34:54;;;;;;;9.88;8.07;;;;;;;21.39;68.82;100376.84;4934721;29;20091;-91
2021/08/15 04:37:20;;;;;;;10.40;7.80;;;;;;;21.44;68.53;100378.19;4934821;29;20034;-91
2021/08/15 04:39:45;;;;;;;14.07;9.05;;;;;;;21.30;69.56;100377.06;4934638;29;20428;-91
2021/08/15 04:42:11;;;;;;;11.18;8.13;;;;;;;21.48;68.73;100376.81;4934704;29;20398;-91
2021/08/15 04:44:36;;;;;;;13.40;8.30;;;;;;;21.35;68.97;100369.34;4934820;29;20111;-91
2021/08/15 04:47:02;;;;;;;12.77;7.93;;;;;;;21.51;68.59;100379.16;4935312;29;20114;-91
2021/08/15 04:49:27;;;;;;;10.65;7.15;;;;;;;21.61;68.35;100376.25;4934839;29;20068;-92
2021/08/15 04:51:54;;;;;;;12.85;8.15;;;;;;;21.57;68.67;100365.91;4935148;29;20079;-92
2021/08/15 04:54:23;;;;;;;11.65;7.65;;;;;;;21.48;69.11;100380.31;4949509;28;20031;-90
2021/08/15 04:56:48;;;;;;;11.70;8.40;;;;;;;21.44;69.49;100368.31;4934610;29;20032;-91
2021/08/15 04:59:14;;;;;;;7.82;5.70;;;;;;;21.55;69.19;100367.91;4934473;29;20550;-91
2021/08/15 05:01:39;;;;;;;10.95;6.60;;;;;;;21.54;68.93;100373.44;4934602;29;20390;-91
2021/08/15 05:04:04;;;;;;;8.85;6.55;;;;;;;21.53;69.16;100374.47;4935121;29;20415;-91
2021/08/15 05:06:32;;;;;;;12.30;7.07;;;;;;;21.58;69.56;100367.56;4935429;29;20027;-91
2021/08/15 05:08:58;;;;;;;9.60;6.05;;;;;;;21.54;69.17;100368.09;4935519;29;20043;-91
2021/08/15 05:11:23;;;;;;;9.25;6.40;;;;;;;21.63;68.85;100356.34;4935886;29;20034;-91
2021/08/15 05:13:49;;;;;;;9.55;6.57;;;;;;;21.41;69.93;100362.50;4935531;29;20070;-91
2021/08/15 05:16:15;;;;;;;9.75;6.10;;;;;;;21.55;69.50;100364.44;4935753;29;20035;-91
2021/08/15 05:18:40;;;;;;;13.77;6.95;;;;;;;21.59;69.36;100353.19;4935753;29;20031;-91
2021/08/15 05:21:06;;;;;;;8.88;5.32;;;;;;;21.62;69.32;100359.19;4935708;29;20024;-91
2021/08/15 05:23:31;;;;;;;8.15;5.68;;;;;;;21.72;68.83;100357.97;4935826;29;20111;-91
2021/08/15 05:25:56;;;;;;;8.73;5.63;;;;;;;21.69;69.10;100366.31;4934365;29;20028;-90
2021/08/15 05:28:22;;;;;;;6.85;4.63;;;;;;;21.67;69.19;100357.66;4935068;29;20023;-91
2021/08/15 05:30:47;;;;;;;11.55;5.57;;;;;;;21.69;69.33;100360.16;4934373;29;20155;-91
2021/08/15 05:33:12;;;;;;;10.27;4.85;;;;;;;21.75;69.16;100362.94;4934394;29;20035;-91
2021/08/15 05:35:38;;;;;;;6.68;4.95;;;;;;;21.75;69.17;100354.91;4934666;29;20462;-91
2021/08/15 05:38:03;;;;;;;6.90;4.68;;;;;;;21.70;69.36;100365.34;4935076;29;20060;-91
2021/08/15 05:40:28;;;;;;;6.68;4.78;;;;;;;21.79;69.04;100366.09;4934821;29;20036;-91
2021/08/15 05:42:53;;;;;;;7.18;4.65;;;;;;;21.85;68.80;100367.22;4935039;29;20036;-92
2021/08/15 05:45:19;;;;;;;7.25;5.20;;;;;;;21.77;68.92;100363.59;4934147;29;20030;-92
2021/08/15 05:47:44;;;;;;;5.95;4.05;;;;;;;21.98;68.55;100370.94;4934278;29;20423;-92
2021/08/15 05:50:10;;;;;;;6.60;4.07;;;;;;;21.93;68.13;100367.16;4934185;29;20035;-91
2021/08/15 05:52:36;;;;;;;5.32;3.30;;;;;;;21.99;68.36;100371.78;4948806;29;20046;-91
2021/08/15 05:55:01;;;;;;;8.55;3.95;;;;;;;21.98;68.35;100375.47;4934038;29;20066;-90
2021/08/15 05:57:26;;;;;;;4.82;3.78;;;;;;;21.95;68.34;100365.94;4934361;29;20117;-91
2021/08/15 05:59:52;;;;;;;4.63;3.53;;;;;;;22.09;67.90;100375.03;4933973;29;20110;-91
2021/08/15 06:02:17;;;;;;;4.90;2.95;;;;;;;22.06;67.95;100364.72;4937457;29;20036;-92
2021/08/15 06:04:42;;;;;;;5.43;3.05;;;;;;;22.15;67.11;100366.28;4937701;29;20031;-91
2021/08/15 06:07:10;;;;;;;3.75;2.70;;;;;;;22.22;67.13;100368.25;4937651;29;20118;-91
2021/08/15 06:09:36;;;;;;;4.03;2.85;;;;;;;22.28;67.06;100365.72;4937509;29;20442;-91
2021/08/15 06:12:05;;;;;;;5.65;2.70;;;;;;;22.30;66.59;100370.88;4952347;29;20035;-90
2021/08/15 06:14:30;;;;;;;5.35;3.00;;;;;;;22.12;67.19;100372.00;4936007;29;20028;-92
2021/08/15 06:16:56;;;;;;;5.10;2.33;;;;;;;22.17;66.97;100366.94;4937719;29;20500;-91
2021/08/15 06:19:21;;;;;;;2.95;1.95;;;;;;;22.36;66.75;100367.47;4937126;29;20476;-91
2021/08/15 06:21:46;;;;;;;4.70;2.33;;;;;;;22.27;66.62;100368.56;4937437;29;20467;-91
2021/08/15 06:24:12;;;;;;;3.60;1.67;;;;;;;22.46;66.36;100377.91;4937031;29;20501;-92
2021/08/15 06:26:37;;;;;;;2.97;1.77;;;;;;;22.48;66.07;100371.34;4937440;29;20491;-92
2021/08/15 06:29:02;;;;;;;2.78;1.85;;;;;;;22.58;65.92;100373.78;4937154;29;20368;-91
2021/08/15 06:31:28;;;;;;;7.20;2.08;;;;;;;22.64;65.80;100374.88;4952081;29;20028;-91
2021/08/15 06:33:53;;;;;;;2.08;1.77;;;;;;;22.72;65.78;100380.13;4951609;29;20110;-91
2021/08/15 06:36:19;;;;;;;2.70;1.55;;;;;;;22.71;65.98;100376.66;4936988;29;20034;-91
2021/08/15 06:38:45;;;;;;;2.03;1.60;;;;;;;22.87;65.66;100375.63;4936804;29;20032;-91
2021/08/15 06:41:10;;;;;;;2.42;1.88;;;;;;;22.85;65.10;100372.31;4937010;29;20024;-92
2021/08/15 06:43:36;;;;;;;7.10;1.80;;;;;;;22.82;64.30;100380.69;4936882;29;20036;-92
2021/08/15 06:46:01;;;;;;;6.90;1.73;;;;;;;22.33;65.77;100379.38;4936752;29;20047;-91
2021/08/15 06:48:26;;;;;;;9.75;1.55;;;;;;;22.47;64.84;100385.75;4936714;29;20020;-91
2021/08/15 06:50:54;;;;;;;7.68;1.40;;;;;;;22.30;64.18;100385.09;4936734;29;20379;-92
2021/08/15 06:53:21;;;;;;;10.55;2.20;;;;;;;22.41;63.76;100383.78;4935464;29;20637;-91
2021/08/15 06:55:47;;;;;;;10.63;2.10;;;;;;;22.08;64.81;100389.41;4951281;28;20024;-92
2021/08/15 06:58:12;;;;;;;6.55;1.55;;;;;;;21.72;65.62;100376.66;4935143;29;20032;-91
2021/08/15 07:00:38;;;;;;;8.65;1.45;;;;;;;22.06;64.67;100391.44;4935089;29;20189;-91
2021/08/15 07:03:03;;;;;;;12.07;1.65;;;;;;;22.00;64.81;100384.16;4936393;29;20414;-91
2021/08/15 07:05:29;;;;;;;7.35;1.75;;;;;;;22.29;64.01;100387.94;4936372;29;20396;-90
2021/08/15 07:07:54;;;;;;;11.38;1.95;;;;;;;22.33;63.92;100384.72;4936216;29;20032;-92
2021/08/15 07:10:19;;;;;;;7.97;1.52;;;;;;;22.51;63.91;100392.41;4936068;29;20031;-90
2021/08/15 07:12:48;;;;;;;10.13;2.10;;;;;;;22.11;65.16;100386.38;4935068;29;20031;-90
2021/08/15 07:15:13;;;;;;;8.40;1.88;;;;;;;22.55;64.04;100387.50;4936054;29;20024;-91
2021/08/15 07:17:40;;;;;;;5.95;1.70;;;;;;;22.78;64.08;100376.72;4936225;29;20368;-91
2021/08/15 07:20:07;;;;;;;5.95;1.67;;;;;;;23.09;63.00;100378.41;4936072;29;20027;-91
2021/08/15 07:22:32;;;;;;;11.13;2.92;;;;;;;23.17;61.34;100379.13;4936016;29;20059;-91
2021/08/15 07:24:57;;;;;;;15.95;2.88;;;;;;;23.24;60.84;100384.53;4935974;29;20060;-92
2021/08/15 07:27:23;;;;;;;11.45;2.00;;;;;;;23.01;61.33;100381.97;4936048;29;20039;-92
2021/08/15 07:29:49;;;;;;;12.88;2.00;;;;;;;22.85;61.58;100385.69;4936173;29;20023;-91
2021/08/15 07:32:14;;;;;;;8.98;1.92;;;;;;;22.78;61.69;100382.06;4935894;29;20106;-91
2021/08/15 07:34:39;;;;;;;9.38;1.50;;;;;;;22.94;61.19;100379.19;4935828;29;20028;-92
2021/08/15 07:37:05;;;;;;;8.48;1.40;;;;;;;22.99;61.14;100388.56;4935856;29;20542;-92
2021/08/15 07:39:30;;;;;;;8.05;1.98;;;;;;;23.02;60.84;100378.31;4935629;29;20125;-91
2021/08/15 07:41:55;;;;;;;3.75;1.10;;;;;;;22.97;60.36;100365.47;4935878;29;20541;-91
2021/08/15 07:44:22;;;;;;;7.53;1.65;;;;;;;22.78;60.88;100368.69;4935636;29;20379;-92
2021/08/15 07:46:48;;;;;;;7.57;2.08;;;;;;;22.71;60.81;100359.72;4935725;29;20027;-91
2021/08/15 07:49:13;;;;;;;6.53;1.13;;;;;;;22.39;61.71;100359.06;4935523;29;20063;-91
2021/08/15 07:51:38;;;;;;;10.90;1.10;;;;;;;22.19;61.82;100361.41;4935588;29;20028;-91
2021/08/15 07:54:05;;;;;;;7.40;1.38;;;;;;;22.37;61.63;100350.41;4935706;29;20023;-91
2021/08/15 07:56:31;;;;;;;9.98;1.58;;;;;;;22.02;61.79;100354.53;4935491;29;20028;-92
2021/08/15 07:58:56;;;;;;;9.25;1.40;;;;;;;22.29;61.58;100374.56;4935386;29;20440;-91
2021/08/15 08:01:22;;;;;;;6.80;1.20;;;;;;;22.63;61.32;100357.16;4935510;29;20445;-91
2021/08/15 08:03:47;;;;;;;7.93;1.45;;;;;;;22.82;60.51;100359.28;4935411;29;20027;-91
2021/08/15 08:06:13;;;;;;;6.30;1.55;;;;;;;23.08;60.13;100355.31;4935316;29;20079;-92
2021/08/15 08:08:38;;;;;;;11.40;1.63;;;;;;;23.10;59.15;100361.31;4934102;29;20394;-92
2021/08/15 08:11:03;;;;;;;8.57;1.30;;;;;;;23.15;59.10;100361.59;4935363;29;20024;-91
2021/08/15 08:13:29;;;;;;;8.77;1.58;;;;;;;23.32;58.96;100363.03;4933962;29;20031;-92
2021/08/15 08:15:54;;;;;;;9.40;1.83;;;;;;;22.75;59.11;100367.22;4935206;29;20052;-92
2021/08/15 08:18:20;;;;;;;11.20;2.22;;;;;;;22.88;58.72;100361.22;4935022;29;20032;-91
2021/08/15 08:20:45;;;;;;;10.90;1.67;;;;;;;23.12;58.12;100368.16;4935356;29;20032;-91
2021/08/15 08:23:13;;;;;;;6.88;1.52;;;;;;;22.99;58.45;100372.47;4934482;29;20031;-91
2021/08/15 08:25:40;;;;;;;7.65;1.70;;;;;;;22.71;58.38;100375.78;4934787;29;20087;-92
2021/08/15 08:28:05;;;;;;;5.28;1.38;;;;;;;22.39;58.94;100377.78;4935173;29;20020;-91
2021/08/15 08:30:31;;;;;;;7.45;1.25;;;;;;;22.65;57.85;100380.06;4933868;29;20039;-91
2021/08/15 08:32:56;;;;;;;6.45;1.42;;;;;;;22.36;58.34;100378.19;4934885;29;20081;-91
2021/08/15 08:35:22;;;;;;;7.93;1.30;;;;;;;23.27;57.18;100370.78;4934826;29;20082;-91
2021/08/15 08:37:48;;;;;;;10.35;1.05;;;;;;;23.04;56.16;100375.44;4934747;29;20023;-91
2021/08/15 08:40:15;;;;;;;4.75;1.33;;;;;;;22.97;55.89;100381.53;4937763;29;20027;-90
2021/08/15 08:42:43;;;;;;;11.07;1.98;;;;;;;23.09;55.46;100373.06;4935667;29;20478;-91
2021/08/15 08:45:10;;;;;;;15.90;1.80;;;;;;;23.09;54.42;100370.38;4935666;29;20028;-92
2021/08/15 08:47:36;;;;;;;6.63;1.33;;;;;;;23.61;53.91;100373.84;4934764;29;20596;-91
2021/08/15 08:50:02;;;;;;;9.68;1.92;;;;;;;23.83;53.87;100372.03;4933413;29;20591;-91
2021/08/15 08:52:29;;;;;;;7.10;1.60;;;;;;;23.59;53.02;100360.63;4934723;29;20475;-92
2021/08/15 08:55:00;;;;;;;14.82;1.73;;;;;;;23.65;53.48;100362.53;4934461;29;20055;-91
2021/08/15 08:57:26;;;;;;;12.13;2.40;;;;;;;23.58;53.15;100367.03;4934997;29;20110;-92
2021/08/15 08:59:52;;;;;;;10.13;1.70;;;;;;;23.45;52.03;100373.06;4934640;29;20071;-91
2021/08/15 09:02:17;;;;;;;5.55;2.03;;;;;;;23.60;52.15;100375.69;4934538;29;20023;-92
2021/08/15 09:04:43;;;;;;;7.35;1.52;;;;;;;23.63;51.13;100375.31;4934783;29;20103;-91
2021/08/15 09:07:17;;;;;;;6.15;1.42;;;;;;;23.53;52.08;100369.44;4934694;29;20032;-92
2021/08/15 09:09:59;;;;;;;12.13;1.98;;;;;;;23.86;51.71;100368.97;4934360;29;20561;-91
2021/08/15 09:12:48;;;;;;;12.23;2.22;;;;;;;24.08;51.12;100377.81;4934371;29;20032;-92
2021/08/15 09:15:19;;;;;;;11.02;1.77;;;;;;;24.18;50.67;100378.31;4934273;29;20367;-92
2021/08/15 09:17:45;;;;;;;5.32;1.67;;;;;;;24.12;50.94;100369.19;4934340;29;20031;-92
2021/08/15 09:20:14;;;;;;;9.55;2.42;;;;;;;23.82;50.65;100383.78;4934360;29;20043;-92
2021/08/15 09:22:39;;;;;;;7.68;1.63;;;;;;;24.00;50.43;100377.97;4934422;29;20434;-91
2021/08/15 09:25:11;;;;;;;8.55;2.58;;;;;;;24.31;49.79;100372.22;4934231;29;20098;-92
2021/08/15 09:27:46;;;;;;;14.63;2.70;;;;;;;24.68;48.00;100362.16;4934507;29;20364;-92
2021/08/15 09:30:13;;;;;;;9.48;2.97;;;;;;;25.47;46.98;100355.47;4934320;29;20028;-92
2021/08/15 09:32:47;;;;;;;11.23;2.58;;;;;;;25.55;47.33;100351.78;4933016;29;20028;-91
2021/08/15 09:35:18;;;;;;;8.48;2.22;;;;;;;25.56;47.01;100350.75;4934428;29;20078;-92
2021/08/15 09:37:43;;;;;;;12.10;3.25;;;;;;;25.05;45.02;100358.22;4937921;29;20024;-92
2021/08/15 09:40:34;;;;;;;13.50;2.80;;;;;;;25.24;45.94;100347.78;4938080;29;20035;-92
2021/08/15 09:43:01;;;;;;;12.80;3.27;;;;;;;24.89;45.91;100348.66;4937830;29;20024;-92
2021/08/15 09:45:53;;;;;;;7.47;2.92;;;;;;;24.83;46.42;100354.00;4938021;29;20024;-92
2021/08/15 09:48:21;;;;;;;;;;;;;;;25.48;45.47;100351.78;4938076;29;20066;-92
2021/08/15 09:51:11;;;;;;;7.90;2.85;;;;;;;25.29;45.70;100359.56;4937371;29;19918;-91
2021/08/15 09:54:02;;;;;;;9.05;2.15;;;;;;;24.89;46.61;100361.25;4937694;29;20039;-91
2021/08/15 09:56:41;;;;;;;9.27;2.50;;;;;;;24.45;47.59;100363.25;4933416;29;20494;-91
2021/08/15 09:59:18;;;;;;;12.15;2.80;;;;;;;24.66;46.99;100364.22;4937512;29;20036;-91
2021/08/15 10:01:48;;;;;;;12.20;2.85;;;;;;;24.36;46.98;100361.72;4937426;29;20031;-92
2021/08/15 10:04:14;;;;;;;15.32;2.78;;;;;;;24.65;45.97;100362.56;4937463;29;20064;-92
2021/08/15 10:06:41;;;;;;;13.13;3.33;;;;;;;24.76;46.82;100353.94;4937559;29;20456;-91
2021/08/15 10:09:07;;;;;;;11.85;3.08;;;;;;;24.62;46.47;100353.03;4937274;29;20028;-91
2021/08/15 10:11:34;;;;;;;9.90;3.53;;;;;;;25.05;46.96;100344.78;4937255;29;20103;-91
2021/08/15 10:14:01;;;;;;;5.78;1.83;;;;;;;25.45;46.38;100338.72;4937153;29;20042;-92
2021/08/15 10:16:31;;;;;;;7.35;2.30;;;;;;;25.81;45.04;100340.22;4937208;29;20024;-92
2021/08/15 10:19:01;;;;;;;12.48;2.70;;;;;;;26.09;44.72;100338.19;4937194;29;20023;-92
2021/08/15 10:21:27;;;;;;;9.85;3.00;;;;;;;26.37;45.29;100339.81;4937268;29;20059;-93
2021/08/15 10:24:06;;;;;;;10.75;2.50;;;;;;;26.39;43.97;100343.13;4937030;29;20497;-91
2021/08/15 10:26:49;;;;;;;11.88;3.03;;;;;;;26.06;44.31;100335.91;4937004;29;20110;-92
2021/08/15 10:29:30;;;;;;;8.30;2.38;;;;;;;26.60;43.52;100334.00;4937217;29;20142;-91
2021/08/15 10:32:22;;;;;;;12.13;3.20;;;;;;;26.80;42.55;100328.56;4935886;29;20067;-92
2021/08/15 10:34:50;;;;;;;8.35;2.33;;;;;;;27.44;42.82;100326.81;4936969;29;20114;-92
2021/08/15 10:37:24;;;;;;;10.32;2.40;;;;;;;28.51;39.29;100327.81;4936857;29;20028;-92
2021/08/15 10:39:51;;;;;;;12.00;2.72;;;;;;;29.21;38.07;100319.31;4936877;29;20031;-92
2021/08/15 10:42:38;;;;;;;7.30;2.00;;;;;;;28.83;38.29;100331.19;4936759;29;20099;-92
2021/08/15 10:45:07;;;;;;;10.43;1.83;;;;;;;28.63;39.19;100331.44;4935398;29;20099;-92
2021/08/15 10:47:33;;;;;;;9.32;2.17;;;;;;;27.80;39.75;100325.28;4936176;29;20031;-92
2021/08/15 10:50:03;;;;;;;10.02;2.40;;;;;;;27.56;41.25;100321.53;4936647;29;20034;-92
2021/08/15 10:52:37;;;;;;;9.30;2.92;;;;;;;26.70;42.02;100317.41;4936459;29;20023;-92
2021/08/15 10:55:14;;;;;;;11.02;2.88;;;;;;;26.69;43.47;100318.44;4936675;29;20023;-92
2021/08/15 10:57:45;;;;;;;14.20;2.92;;;;;;;27.05;43.25;100309.81;4936412;29;20067;-92
2021/08/15 11:00:34;;;;;;;11.75;2.75;;;;;;;27.49;42.40;100307.28;4936398;29;20031;-92
2021/08/15 11:03:21;;;;;;;10.75;2.47;;;;;;;27.65;41.91;100303.25;4930206;29;20046;-91
2021/08/15 11:05:47;;;;;;;8.27;2.95;;;;;;;27.57;42.08;100301.63;4936291;29;20028;-91
2021/08/15 11:08:34;;;;;;;9.07;2.70;;;;;;;27.50;41.79;100284.66;4936520;29;20497;-92
2021/08/15 11:11:23;;;;;;;12.07;3.25;;;;;;;27.13;42.04;100289.84;4935048;29;20066;-92
2021/08/15 11:14:17;;;;;;;9.23;1.92;;;;;;;27.53;42.41;100288.78;4934912;29;20035;-92
2021/08/15 11:16:50;;;;;;;8.13;2.63;;;;;;;27.41;42.35;100296.75;4935946;29;20028;-92
2021/08/15 11:19:16;;;;;;;10.40;2.25;;;;;;;27.38;41.96;100281.84;4936147;29;20059;-92
2021/08/15 11:22:04;;;;;;;11.23;2.65;;;;;;;27.91;42.01;100283.34;4936025;29;20478;-91
2021/08/15 11:24:31;;;;;;;12.48;2.70;;;;;;;27.98;40.76;100276.00;4935945;29;20034;-92